Time;durP1;ratioP1;P1;durP2;ratioP2;P2;SDS_P1;SDS_P2;PMS_P1;PMS_P2;Temp;Humidity;BMP_temperature;BMP_pressure;BME280_temperature;BME280_humidity;BME280_pressure;Samples;Min_cycle;Max_cycle;Signal;HPM_P1;HPM_P2
2023/07/05 00:00:30;;;;;;;6.25;5.13;;;14.30;1.00;;;;;;5053803;28;20257;-75
2023/07/05 00:02:56;;;;;;;8.65;5.50;;;14.40;1.00;;;;;;5053079;28;20202;-75
2023/07/05 00:05:22;;;;;;;8.25;5.07;;;14.40;1.00;;;;;;5053422;28;20320;-75
2023/07/05 00:07:48;;;;;;;8.77;5.22;;;14.50;1.00;;;;;;5050154;28;20243;-76
2023/07/05 00:10:13;;;;;;;9.25;5.05;;;14.60;1.00;;;;;;5050537;28;20188;-75
2023/07/05 00:12:39;;;;;;;9.93;5.00;;;14.60;1.00;;;;;;5051856;28;20194;-75
2023/07/05 00:15:06;;;;;;;7.88;5.28;;;14.60;1.00;;;;;;5033431;28;20190;-75
2023/07/05 00:17:34;;;;;;;9.93;4.80;;;14.70;1.00;;;;;;5040278;28;20206;-74
2023/07/05 00:20:01;;;;;;;10.93;5.00;;;14.80;1.00;;;;;;5059522;28;20173;-75
2023/07/05 00:22:27;;;;;;;8.52;4.90;;;14.80;1.00;;;;;;5059411;28;20174;-74
2023/07/05 00:24:54;;;;;;;7.78;5.25;;;14.80;1.00;;;;;;5056685;28;20292;-75
2023/07/05 00:27:20;;;;;;;8.90;5.20;;;14.90;1.00;;;;;;5037880;28;20745;-75
2023/07/05 00:29:46;;;;;;;5.63;5.05;;;14.70;1.00;;;;;;5056970;28;20174;-76
2023/07/05 00:32:11;;;;;;;7.78;4.93;;;15.00;1.00;;;;;;5040405;28;20706;-75
2023/07/05 00:34:37;;;;;;;6.80;4.65;;;14.80;1.00;;;;;;5038956;28;20186;-75
2023/07/05 00:37:03;;;;;;;7.93;4.75;;;15.00;1.00;;;;;;5056901;28;20213;-76
2023/07/05 00:39:28;;;;;;;8.43;4.97;;;14.80;1.00;;;;;;5062768;28;20735;-75
2023/07/05 00:41:55;;;;;;;7.68;4.88;;;14.80;1.00;;;;;;5056240;28;20183;-75
2023/07/05 00:44:20;;;;;;;9.48;4.97;;;14.80;1.00;;;;;;5057994;28;20252;-75
2023/07/05 00:46:50;;;;;;;10.18;5.10;;;14.70;1.00;;;;;;5059780;28;20967;-75
2023/07/05 00:49:19;;;;;;;10.10;5.47;;;14.70;1.00;;;;;;5053252;28;20182;-77
2023/07/05 00:51:58;;;;;;;7.50;4.85;;;14.60;1.00;;;;;;5035945;28;20220;-76
2023/07/05 00:54:30;;;;;;;10.73;5.13;;;14.60;1.00;;;;;;5058765;28;20207;-75
2023/07/05 00:57:02;;;;;;;7.22;5.25;;;14.60;1.00;;;;;;5053184;28;20232;-75
2023/07/05 00:59:34;;;;;;;7.57;5.50;;;14.60;1.00;;;;;;5054436;28;20188;-76
2023/07/05 01:01:59;;;;;;;8.20;4.80;;;14.60;1.00;;;;;;5052276;28;20205;-76
2023/07/05 01:04:25;;;;;;;7.22;4.88;;;14.80;1.00;;;;;;5057156;28;20220;-75
2023/07/05 01:06:51;;;;;;;7.65;5.20;;;14.70;1.00;;;;;;5052199;28;20216;-77
2023/07/05 01:09:17;;;;;;;8.43;5.28;;;14.60;1.00;;;;;;5054662;28;20197;-77
2023/07/05 01:11:59;;;;;;;7.00;5.35;;;14.70;1.00;;;;;;5052679;28;20273;-75
2023/07/05 01:14:32;;;;;;;7.05;4.88;;;14.70;1.00;;;;;;5055108;28;20190;-77
2023/07/05 01:17:22;;;;;;;8.43;5.68;;;14.90;1.00;;;;;;5055856;28;20308;-76
2023/07/05 01:20:02;;;;;;;10.43;5.50;;;14.70;1.00;;;;;;5059336;28;20186;-74
2023/07/05 01:22:31;;;;;;;9.75;5.20;;;14.70;1.00;;;;;;5035926;28;20174;-75
2023/07/05 01:25:09;;;;;;;11.40;5.50;;;14.70;1.00;;;;;;5055198;28;20193;-75
2023/07/05 01:28:15;;;;;;;5.95;5.32;;;14.60;1.00;;;;;;5035724;28;20203;-76
2023/07/05 01:31:05;;;;;;;9.05;5.07;;;14.70;1.00;;;;;;5017828;28;20230;-75
2023/07/05 01:34:03;;;;;;;9.85;5.25;;;14.80;1.00;;;;;;5038903;28;20263;-75
2023/07/05 01:36:30;;;;;;;8.82;4.95;;;14.90;99.90;;;;;;5054524;28;20212;-75
2023/07/05 01:38:56;;;;;;;7.93;5.32;;;15.00;99.90;;;;;;5053594;28;20166;-74
2023/07/05 01:41:22;;;;;;;7.65;5.20;;;15.00;99.90;;;;;;5036492;28;20186;-76
2023/07/05 01:43:49;;;;;;;7.22;5.07;;;15.00;99.90;;;;;;5038216;28;20272;-75
2023/07/05 01:47:01;;;;;;;9.00;4.88;;;15.00;99.90;;;;;;5056590;28;20216;-75
2023/07/05 01:49:49;;;;;;;5.65;4.40;;;15.10;99.90;;;;;;5047924;28;20582;-76
2023/07/05 01:52:45;;;;;;;8.55;4.75;;;15.10;99.90;;;;;;5054350;28;20276;-75
2023/07/05 01:55:18;;;;;;;7.70;5.03;;;15.10;99.90;;;;;;5053229;28;20211;-75
2023/07/05 01:57:54;;;;;;;6.85;5.10;;;15.10;99.90;;;;;;5037972;28;20205;-78
2023/07/05 02:00:22;;;;;;;9.88;5.38;;;15.10;99.90;;;;;;5037579;28;20184;-76
2023/07/05 02:03:01;;;;;;;7.82;5.50;;;15.10;99.90;;;;;;5051908;28;20213;-76
2023/07/05 02:05:29;;;;;;;9.45;5.15;;;15.20;99.90;;;;;;5055158;28;20198;-75
2023/07/05 02:07:56;;;;;;;8.32;5.00;;;15.20;99.90;;;;;;5038037;28;20645;-75
2023/07/05 02:10:23;;;;;;;10.02;5.50;;;15.30;99.90;;;;;;5054109;28;20653;-75
2023/07/05 02:12:52;;;;;;;7.68;5.20;;;15.10;99.90;;;;;;5056165;28;20186;-76
2023/07/05 02:15:18;;;;;;;8.68;5.50;;;15.20;99.90;;;;;;5051355;28;20692;-76
2023/07/05 02:17:44;;;;;;;8.65;5.40;;;15.30;99.90;;;;;;5053396;28;20220;-76
2023/07/05 02:20:10;;;;;;;7.35;5.40;;;15.30;99.90;;;;;;5056108;28;20186;-76
2023/07/05 02:22:36;;;;;;;7.95;5.43;;;15.30;99.90;;;;;;5054406;28;20280;-76
2023/07/05 02:25:01;;;;;;;12.27;5.40;;;15.40;99.90;;;;;;5054452;28;20550;-75
2023/07/05 02:27:28;;;;;;;7.85;5.55;;;15.30;99.90;;;;;;5055505;28;20173;-76
2023/07/05 02:29:55;;;;;;;8.35;5.43;;;15.30;99.90;;;;;;5056719;28;20190;-77
2023/07/05 02:32:21;;;;;;;7.07;5.32;;;15.30;99.90;;;;;;5053435;28;20200;-75
2023/07/05 02:34:47;;;;;;;9.45;5.32;;;15.30;99.90;;;;;;5035831;28;20300;-76
2023/07/05 02:37:14;;;;;;;8.45;5.63;;;15.50;99.90;;;;;;5033507;28;20564;-76
2023/07/05 02:39:40;;;;;;;7.05;5.72;;;15.20;99.90;;;;;;5056389;28;20188;-76
2023/07/05 02:42:07;;;;;;;9.73;5.78;;;15.40;99.90;;;;;;5052446;28;20667;-75
2023/07/05 02:44:33;;;;;;;8.70;5.45;;;15.40;99.90;;;;;;5055064;28;20181;-76
2023/07/05 02:46:59;;;;;;;7.15;5.50;;;15.40;99.90;;;;;;5056521;28;20208;-76
2023/07/05 02:49:24;;;;;;;7.60;5.28;;;15.40;99.90;;;;;;5056246;28;20174;-77
2023/07/05 02:51:50;;;;;;;8.32;5.82;;;15.40;99.90;;;;;;5032821;28;20217;-75
2023/07/05 02:54:16;;;;;;;7.78;5.55;;;15.50;99.90;;;;;;5036578;28;20256;-76
2023/07/05 02:56:42;;;;;;;7.95;6.18;;;15.70;99.90;;;;;;5050100;28;20249;-76
2023/07/05 02:59:07;;;;;;;6.05;5.45;;;15.50;99.90;;;;;;5051311;28;20190;-76
2023/07/05 03:01:33;;;;;;;10.90;6.10;;;15.50;99.90;;;;;;5052057;28;20185;-75
2023/07/05 03:03:59;;;;;;;6.90;5.38;;;15.60;99.90;;;;;;5054720;28;20542;-77
2023/07/05 03:06:24;;;;;;;8.45;5.97;;;15.50;99.90;;;;;;5051273;28;20206;-75
2023/07/05 03:08:50;;;;;;;8.32;5.63;;;15.60;99.90;;;;;;5052011;28;20644;-75
2023/07/05 03:11:15;;;;;;;9.23;5.53;;;15.60;99.90;;;;;;5053545;28;20181;-75
2023/07/05 03:13:41;;;;;;;11.88;6.13;;;15.70;99.90;;;;;;5053610;28;20640;-75
2023/07/05 03:16:07;;;;;;;6.43;5.78;;;15.50;99.90;;;;;;5055980;28;20209;-77
2023/07/05 03:18:33;;;;;;;7.10;5.88;;;15.80;99.90;;;;;;5053985;28;20699;-75
2023/07/05 03:20:58;;;;;;;7.03;6.05;;;15.60;99.90;;;;;;5055896;28;20299;-76
2023/07/05 03:23:24;;;;;;;6.63;5.57;;;15.90;99.90;;;;;;5054515;28;20552;-76
2023/07/05 03:25:55;;;;;;;6.10;5.50;;;15.60;99.90;;;;;;5048107;28;20559;-77
2023/07/05 03:28:21;;;;;;;8.77;6.15;;;15.60;99.90;;;;;;5057175;28;20321;-76
2023/07/05 03:31:11;;;;;;;7.60;6.03;;;15.50;99.90;;;;;;5055747;28;20189;-76
2023/07/05 03:33:38;;;;;;;7.97;6.05;;;15.50;99.90;;;;;;5054116;28;20270;-75
2023/07/05 03:36:17;;;;;;;9.38;6.50;;;15.50;99.90;;;;;;5053577;28;20241;-75
2023/07/05 03:38:43;;;;;;;6.90;6.00;;;15.40;99.90;;;;;;5053022;28;20202;-76
2023/07/05 03:41:14;;;;;;;7.10;5.95;;;15.60;99.90;;;;;;5053854;28;20182;-76
2023/07/05 03:43:41;;;;;;;8.00;6.38;;;15.60;99.90;;;;;;5053577;28;20227;-75
2023/07/05 03:46:10;;;;;;;8.63;6.22;;;15.70;99.90;;;;;;5052678;28;20192;-76
2023/07/05 03:48:38;;;;;;;7.75;6.00;;;15.70;99.90;;;;;;5054180;28;20221;-75
2023/07/05 03:51:04;;;;;;;8.25;5.95;;;15.50;99.90;;;;;;5039009;28;20189;-77
2023/07/05 03:53:33;;;;;;;8.60;6.22;;;15.40;99.90;;;;;;5033905;28;20190;-75
2023/07/05 03:56:04;;;;;;;8.07;6.13;;;15.40;99.90;;;;;;5054208;28;20209;-77
2023/07/05 03:58:29;;;;;;;7.78;6.43;;;15.40;99.90;;;;;;5047091;28;20240;-76
2023/07/05 04:01:14;;;;;;;9.38;6.18;;;15.30;99.90;;;;;;5059424;28;20214;-75
2023/07/05 04:03:41;;;;;;;8.48;6.35;;;15.20;99.90;;;;;;5037242;28;20186;-76
2023/07/05 04:06:07;;;;;;;8.30;6.68;;;15.30;99.90;;;;;;5059226;28;20665;-75
2023/07/05 04:08:32;;;;;;;8.57;6.60;;;15.20;99.90;;;;;;5041542;28;20189;-76
2023/07/05 04:10:58;;;;;;;7.80;6.60;;;15.20;99.90;;;;;;5057852;28;20218;-76
2023/07/05 04:13:24;;;;;;;9.20;6.30;;;15.20;99.90;;;;;;5057393;28;20197;-75
2023/07/05 04:16:04;;;;;;;9.10;6.35;;;15.10;99.90;;;;;;5055694;28;20213;-77
2023/07/05 04:18:31;;;;;;;9.43;6.57;;;15.20;99.90;;;;;;5054743;28;20204;-77
2023/07/05 04:20:57;;;;;;;9.57;7.20;;;15.30;99.90;;;;;;5039343;28;20182;-76
2023/07/05 04:23:23;;;;;;;9.20;6.22;;;15.30;99.90;;;;;;5057131;28;20197;-77
2023/07/05 04:25:49;;;;;;;7.40;6.30;;;15.30;99.90;;;;;;5056409;28;20242;-76
2023/07/05 04:28:15;;;;;;;9.20;6.43;;;15.60;99.90;;;;;;5037418;28;20262;-76
2023/07/05 04:30:40;;;;;;;9.68;6.75;;;15.30;99.90;;;;;;5056848;28;20185;-77
2023/07/05 04:33:06;;;;;;;8.27;6.53;;;15.40;99.90;;;;;;5056066;28;20280;-77
2023/07/05 04:35:32;;;;;;;14.55;6.85;;;15.40;99.90;;;;;;5058405;28;20210;-76
2023/07/05 04:37:57;;;;;;;7.50;6.63;;;15.50;99.90;;;;;;5037201;28;20665;-76
2023/07/05 04:40:23;;;;;;;8.90;6.70;;;15.50;99.90;;;;;;5056091;28;20185;-76
2023/07/05 04:42:48;;;;;;;9.95;7.00;;;15.60;99.90;;;;;;5055064;28;20261;-75
2023/07/05 04:45:16;;;;;;;8.55;6.55;;;15.50;99.90;;;;;;5054980;28;20729;-76
2023/07/05 04:47:42;;;;;;;7.68;6.90;;;15.50;99.90;;;;;;5056873;28;20266;-76
2023/07/05 04:50:08;;;;;;;8.23;6.53;;;15.50;99.90;;;;;;5057551;28;20272;-75
2023/07/05 04:52:33;;;;;;;8.18;6.78;;;15.70;99.90;;;;;;5058810;28;20753;-75
2023/07/05 04:54:59;;;;;;;9.45;6.70;;;15.70;99.90;;;;;;5053378;28;20180;-76
2023/07/05 04:57:28;;;;;;;9.57;6.72;;;15.90;99.90;;;;;;5040606;28;20290;-76
2023/07/05 04:59:54;;;;;;;8.23;6.93;;;16.00;99.90;;;;;;5057746;28;20604;-76
2023/07/05 05:02:19;;;;;;;8.32;7.22;;;16.00;99.90;;;;;;5055758;28;20315;-75
2023/07/05 05:04:45;;;;;;;9.27;6.68;;;16.10;99.90;;;;;;5054622;28;20208;-75
2023/07/05 05:07:13;;;;;;;8.85;7.40;;;15.90;99.90;;;;;;5053954;28;20205;-76
2023/07/05 05:09:40;;;;;;;8.70;7.40;;;16.10;99.90;;;;;;5039393;28;20174;-76
2023/07/05 05:12:07;;;;;;;8.43;7.00;;;16.10;99.90;;;;;;5053569;28;20190;-76
2023/07/05 05:14:33;;;;;;;7.57;6.88;;;16.20;99.90;;;;;;5058862;28;20178;-75
2023/07/05 05:16:59;;;;;;;10.77;7.40;;;16.40;99.90;;;;;;5057005;28;20201;-76
2023/07/05 05:19:24;;;;;;;8.65;7.50;;;16.40;99.90;;;;;;5052978;28;20256;-76
2023/07/05 05:21:50;;;;;;;7.70;6.90;;;16.50;99.90;;;;;;5059580;28;20672;-76
2023/07/05 05:24:15;;;;;;;12.10;7.13;;;16.50;99.90;;;;;;5055154;28;20555;-76
2023/07/05 05:26:41;;;;;;;8.35;7.30;;;16.70;99.90;;;;;;5054549;28;20207;-76
2023/07/05 05:29:07;;;;;;;9.48;6.90;;;16.60;99.90;;;;;;5056995;28;20316;-76
2023/07/05 05:31:32;;;;;;;8.80;6.93;;;16.70;99.90;;;;;;5057036;28;20186;-75
2023/07/05 05:33:58;;;;;;;9.55;7.40;;;16.60;99.90;;;;;;5053164;28;20186;-76
2023/07/05 05:36:24;;;;;;;8.20;7.22;;;16.70;99.90;;;;;;5039436;28;20205;-76
2023/07/05 05:38:50;;;;;;;8.10;7.30;;;16.70;1.00;;;;;;5054947;28;20198;-76
2023/07/05 05:41:15;;;;;;;9.02;7.07;;;16.60;99.90;;;;;;5037346;28;20174;-76
2023/07/05 05:43:43;;;;;;;12.43;8.05;;;16.80;99.90;;;;;;5057211;28;20178;-75
2023/07/05 05:46:08;;;;;;;8.25;7.45;;;16.90;99.90;;;;;;5056606;28;20202;-75
2023/07/05 05:48:34;;;;;;;8.43;7.15;;;16.80;99.90;;;;;;5053203;28;20244;-76
2023/07/05 05:51:00;;;;;;;6.45;5.85;;;16.90;99.90;;;;;;5059306;28;20231;-75
2023/07/05 05:53:26;;;;;;;8.52;6.40;;;17.00;99.90;;;;;;5037953;28;20590;-76
2023/07/05 05:55:51;;;;;;;7.00;6.07;;;17.10;99.90;;;;;;5056914;28;20198;-76
2023/07/05 05:58:17;;;;;;;6.95;6.25;;;17.20;1.00;;;;;;5057470;28;20671;-76
2023/07/05 06:00:42;;;;;;;6.40;5.80;;;17.20;1.00;;;;;;5055195;28;20177;-75
2023/07/05 06:03:08;;;;;;;6.43;4.82;;;17.50;1.00;;;;;;5052955;28;20173;-76
2023/07/05 06:05:34;;;;;;;5.43;4.60;;;17.70;99.90;;;;;;5054335;28;20207;-76
2023/07/05 06:08:00;;;;;;;5.72;4.15;;;17.90;1.00;;;;;;5056002;28;20192;-76
2023/07/05 06:10:26;;;;;;;6.00;4.80;;;18.20;1.00;;;;;;5055336;28;20189;-77
2023/07/05 06:12:51;;;;;;;5.53;4.38;;;18.30;1.00;;;;;;5052995;28;20185;-76
2023/07/05 06:15:17;;;;;;;4.72;4.32;;;18.30;1.00;;;;;;5054232;28;20206;-76
2023/07/05 06:17:43;;;;;;;4.05;3.50;;;18.30;1.00;;;;;;5052482;28;20697;-76
2023/07/05 06:20:10;;;;;;;4.68;3.65;;;18.30;1.00;;;;;;5056626;28;20182;-75
2023/07/05 06:22:37;;;;;;;5.32;3.38;;;18.40;1.00;;;;;;5054126;28;20182;-76
2023/07/05 06:25:03;;;;;;;3.60;3.20;;;18.50;1.00;;;;;;5055393;28;20664;-77
2023/07/05 06:27:29;;;;;;;3.70;3.20;;;18.60;1.00;;;;;;5053773;28;20193;-76
2023/07/05 06:29:55;;;;;;;4.03;3.50;;;18.60;1.00;;;;;;5048995;28;20188;-77
2023/07/05 06:32:22;;;;;;;4.13;2.95;;;18.60;1.00;;;;;;5056121;28;20185;-76
2023/07/05 06:34:47;;;;;;;4.32;3.20;;;18.50;1.00;;;;;;5033781;28;20178;-76
2023/07/05 06:37:13;;;;;;;4.10;3.00;;;18.60;1.00;;;;;;5049868;28;20287;-77
2023/07/05 06:39:41;;;;;;;4.53;2.90;;;18.50;1.00;;;;;;5052596;28;20193;-76
2023/07/05 06:42:06;;;;;;;4.28;2.78;;;18.50;1.00;;;;;;5053110;28;20186;-76
2023/07/05 06:44:32;;;;;;;4.85;3.03;;;18.30;1.00;;;;;;5035003;28;20185;-77
2023/07/05 06:46:58;;;;;;;4.32;2.70;;;18.20;1.00;;;;;;5054055;28;20197;-77
2023/07/05 06:49:24;;;;;;;2.75;2.33;;;18.00;1.00;;;;;;5054474;28;20177;-77
2023/07/05 06:51:50;;;;;;;3.67;2.45;;;17.90;1.00;;;;;;5050161;28;20214;-78
2023/07/05 06:54:15;;;;;;;4.05;2.30;;;17.90;1.00;;;;;;5032736;28;20580;-79
2023/07/05 06:56:41;;;;;;;2.88;2.47;;;18.00;1.00;;;;;;5050676;28;20680;-77
2023/07/05 06:59:07;;;;;;;3.75;2.45;;;18.20;1.00;;;;;;5050170;28;20178;-77
2023/07/05 07:01:33;;;;;;;2.50;2.05;;;18.40;1.00;;;;;;5052106;28;20199;-79
2023/07/05 07:03:58;;;;;;;4.20;2.22;;;18.30;1.00;;;;;;5057626;28;20274;-79
2023/07/05 07:06:24;;;;;;;2.53;2.10;;;18.30;1.00;;;;;;5036818;28;20194;-80
2023/07/05 07:08:50;;;;;;;3.42;2.42;;;18.80;1.00;;;;;;5055354;28;20194;-80
2023/07/05 07:11:15;;;;;;;4.15;2.55;;;18.70;1.00;;;;;;5056537;28;20206;-80
2023/07/05 07:13:41;;;;;;;2.90;2.60;;;19.10;1.00;;;;;;5056026;28;20235;-77
2023/07/05 07:16:12;;;;;;;2.70;2.47;;;19.10;1.00;;;;;;5055338;28;20252;-78
2023/07/05 07:18:41;;;;;;;5.15;2.85;;;19.10;1.00;;;;;;5056246;28;20626;-76
2023/07/05 07:21:11;;;;;;;3.25;2.45;;;19.10;1.00;;;;;;5054661;28;20178;-76
2023/07/05 07:23:38;;;;;;;3.13;2.47;;;18.90;1.00;;;;;;5036846;28;20252;-75
2023/07/05 07:26:16;;;;;;;3.55;2.65;;;18.60;1.00;;;;;;5021929;28;20625;-75
2023/07/05 07:28:49;;;;;;;2.90;2.60;;;18.30;99.90;;;;;;5041936;28;20213;-75
2023/07/05 07:31:23;;;;;;;3.40;2.72;;;18.20;99.90;;;;;;5055658;28;20178;-75
2023/07/05 07:33:50;;;;;;;2.70;2.42;;;18.10;1.00;;;;;;5058798;28;20281;-75
2023/07/05 07:36:23;;;;;;;3.55;2.58;;;18.10;99.90;;;;;;5057394;28;20696;-76
2023/07/05 07:38:49;;;;;;;3.35;2.42;;;18.20;99.90;;;;;;5058781;28;20209;-76
2023/07/05 07:41:23;;;;;;;3.47;2.50;;;18.10;1.00;;;;;;5060451;28;20204;-75
2023/07/05 07:43:51;;;;;;;3.25;2.47;;;18.20;1.00;;;;;;5042079;28;20180;-75
2023/07/05 07:46:20;;;;;;;2.80;2.50;;;18.10;99.90;;;;;;5057809;28;20194;-75
2023/07/05 07:48:48;;;;;;;3.65;2.72;;;18.20;1.00;;;;;;5056230;28;20555;-75
2023/07/05 07:51:16;;;;;;;2.70;2.28;;;18.10;99.90;;;;;;5044037;28;20181;-77
2023/07/05 07:53:42;;;;;;;2.63;2.42;;;18.10;99.90;;;;;;5058800;28;20659;-76
2023/07/05 07:56:12;;;;;;;2.88;2.50;;;18.30;1.00;;;;;;5058211;28;20201;-75
2023/07/05 07:58:38;;;;;;;2.53;2.20;;;18.70;99.90;;;;;;5057467;28;20229;-75
2023/07/05 08:01:17;;;;;;;3.20;2.30;;;19.20;1.00;;;;;;5059518;28;20181;-80
2023/07/05 08:03:43;;;;;;;3.15;2.33;;;19.60;1.00;;;;;;5052542;28;20209;-77
2023/07/05 08:06:10;;;;;;;2.40;2.20;;;20.00;1.00;;;;;;5058338;28;20193;-77
2023/07/05 08:08:38;;;;;;;2.33;2.10;;;20.20;1.00;;;;;;5056321;28;20593;-77
2023/07/05 08:11:05;;;;;;;1.77;1.67;;;20.50;1.00;;;;;;5059343;28;20200;-77
2023/07/05 08:13:41;;;;;;;1.83;1.70;;;20.70;99.90;;;;;;5058215;28;20191;-78
2023/07/05 08:16:08;;;;;;;2.45;1.80;;;20.80;99.90;;;;;;5042012;28;20687;-78
2023/07/05 08:18:33;;;;;;;2.47;1.67;;;21.00;99.90;;;;;;5058618;28;20248;-81
2023/07/05 08:20:59;;;;;;;1.80;1.70;;;21.00;99.90;;;;;;5061633;28;20177;-79
2023/07/05 08:23:25;;;;;;;2.25;1.55;;;20.90;99.90;;;;;;5057486;28;20306;-78
2023/07/05 08:25:57;;;;;;;1.90;1.70;;;20.80;99.90;;;;;;5058969;28;20194;-78
2023/07/05 08:28:26;;;;;;;2.08;1.50;;;20.90;99.90;;;;;;5059252;28;20186;-77
2023/07/05 08:30:57;;;;;;;3.67;2.00;;;20.80;99.90;;;;;;5057954;28;20189;-78
2023/07/05 08:33:23;;;;;;;2.50;1.80;;;20.80;99.90;;;;;;5059365;28;20691;-80
2023/07/05 08:36:06;;;;;;;1.80;1.63;;;20.80;99.90;;;;;;5059261;28;20255;-77
2023/07/05 08:38:31;;;;;;;2.13;1.92;;;20.60;99.90;;;;;;5058709;28;20668;-77
2023/07/05 08:41:20;;;;;;;2.00;1.75;;;20.40;99.90;;;;;;5058236;28;20177;-79
2023/07/05 08:43:56;;;;;;;2.20;2.00;;;20.50;99.90;;;;;;5056291;28;20177;-80
2023/07/05 08:46:24;;;;;;;2.00;1.90;;;20.50;95.40;;;;;;5056715;28;20282;-78
2023/07/05 08:48:56;;;;;;;2.15;1.98;;;20.30;88.50;;;;;;5030517;28;20776;-78
2023/07/05 08:51:22;;;;;;;2.13;1.77;;;20.40;94.30;;;;;;5058165;28;20214;-79
2023/07/05 08:53:54;;;;;;;2.83;2.20;;;20.60;75.30;;;;;;5058112;28;20209;-77
2023/07/05 08:56:38;;;;;;;2.38;2.10;;;20.80;94.20;;;;;;5055164;28;20225;-79
2023/07/05 08:59:10;;;;;;;3.15;2.17;;;21.10;45.40;;;;;;5054170;28;20201;-79
2023/07/05 09:01:40;;;;;;;2.83;2.40;;;21.30;15.30;;;;;;5056960;28;20190;-76
2023/07/05 09:04:12;;;;;;;2.30;2.10;;;21.30;1.00;;;;;;5050803;28;20269;-76
2023/07/05 09:06:59;;;;;;;3.40;2.63;;;20.80;1.00;;;;;;5035592;28;20189;-77
2023/07/05 09:09:43;;;;;;;2.53;2.20;;;20.30;1.00;;;;;;5054961;28;20264;-78
2023/07/05 09:12:27;;;;;;;5.70;3.00;;;20.00;1.00;;;;;;5056032;28;20273;-79
2023/07/05 09:15:08;;;;;;;2.88;2.63;;;19.80;1.00;;;;;;5047075;28;20272;-79
2023/07/05 09:17:45;;;;;;;3.30;2.67;;;19.70;1.00;;;;;;5046594;28;20201;-78
2023/07/05 09:20:10;;;;;;;2.40;2.17;;;19.80;1.00;;;;;;5058003;28;20185;-77
2023/07/05 09:22:38;;;;;;;3.92;2.63;;;19.80;1.00;;;;;;5058280;28;20181;-77
2023/07/05 09:25:08;;;;;;;3.47;2.72;;;19.90;1.00;;;;;;5058037;28;20194;-78
2023/07/05 09:27:40;;;;;;;2.72;2.47;;;19.90;1.00;;;;;;5038948;28;20178;-79
2023/07/05 09:30:14;;;;;;;4.00;2.40;;;19.70;1.00;;;;;;5058070;28;20189;-78
2023/07/05 09:32:44;;;;;;;2.40;2.20;;;19.70;1.00;;;;;;5038970;28;20555;-78
2023/07/05 09:35:17;;;;;;;2.88;2.55;;;19.60;1.00;;;;;;5056714;28;20641;-75
2023/07/05 09:38:01;;;;;;;2.42;2.22;;;19.50;1.00;;;;;;5055819;28;20288;-77
2023/07/05 09:40:31;;;;;;;2.95;2.03;;;19.60;1.00;;;;;;5047531;28;20660;-77
2023/07/05 09:43:02;;;;;;;2.72;2.35;;;19.60;1.00;;;;;;5038056;28;20182;-79
2023/07/05 09:45:29;;;;;;;2.65;2.38;;;19.60;1.00;;;;;;5038467;28;20197;-78
2023/07/05 09:48:03;;;;;;;4.30;2.50;;;19.70;1.00;;;;;;5057695;28;20177;-75
2023/07/05 09:50:29;;;;;;;6.32;2.40;;;19.70;1.00;;;;;;5057030;28;20181;-78
2023/07/05 09:53:35;;;;;;;2.95;2.17;;;19.80;1.00;;;;;;5038483;28;20182;-79
2023/07/05 09:56:04;;;;;;;4.00;2.50;;;19.80;1.00;;;;;;5052482;28;20213;-76
2023/07/05 09:58:30;;;;;;;4.32;2.17;;;19.70;1.00;;;;;;5038372;28;20244;-78
2023/07/05 10:01:02;;;;;;;2.75;2.42;;;19.80;1.00;;;;;;5036558;28;20664;-77
2023/07/05 10:03:37;;;;;;;4.25;2.10;;;19.80;1.00;;;;;;5054115;28;20174;-77
2023/07/05 10:06:07;;;;;;;4.18;2.25;;;19.90;1.00;;;;;;5055866;28;20287;-79
2023/07/05 10:08:44;;;;;;;2.97;2.25;;;19.90;1.00;;;;;;5055395;28;20222;-80
2023/07/05 10:11:28;;;;;;;3.58;2.30;;;19.80;1.00;;;;;;5056121;28;20518;-78
2023/07/05 10:14:07;;;;;;;3.75;2.25;;;19.70;1.00;;;;;;5075168;28;20577;-79
2023/07/05 10:16:45;;;;;;;3.58;2.20;;;19.80;1.00;;;;;;5073880;28;20201;-80
2023/07/05 10:19:25;;;;;;;4.18;2.33;;;19.90;1.00;;;;;;5073219;28;20176;-78
2023/07/05 10:22:07;;;;;;;3.08;2.30;;;19.90;1.00;;;;;;5073338;28;20648;-79
2023/07/05 10:24:44;;;;;;;2.70;2.20;;;20.00;1.00;;;;;;5074109;28;20543;-78
2023/07/05 10:27:24;;;;;;;2.70;2.15;;;20.10;1.00;;;;;;5072278;28;20200;-79
2023/07/05 10:29:57;;;;;;;3.22;2.22;;;20.20;1.00;;;;;;5071487;28;20283;-78
2023/07/05 10:32:23;;;;;;;2.40;2.20;;;20.30;1.00;;;;;;5071205;28;20301;-77
2023/07/05 10:34:50;;;;;;;4.03;2.03;;;20.30;1.00;;;;;;5069490;28;20645;-75
2023/07/05 10:37:30;;;;;;;4.28;2.25;;;20.30;1.00;;;;;;5070808;28;20293;-78
2023/07/05 10:39:57;;;;;;;4.18;2.20;;;20.10;1.00;;;;;;5070978;28;20231;-79
2023/07/05 10:42:24;;;;;;;4.10;2.30;;;20.00;1.00;;;;;;5072235;28;20268;-76
2023/07/05 10:44:51;;;;;;;2.72;2.35;;;19.90;1.00;;;;;;5073249;28;20261;-78
2023/07/05 10:47:17;;;;;;;3.97;2.50;;;20.00;1.00;;;;;;5072351;28;20196;-79
2023/07/05 10:49:46;;;;;;;2.67;1.92;;;20.10;1.00;;;;;;5071489;28;20195;-76
2023/07/05 10:52:16;;;;;;;3.90;2.00;;;20.30;1.00;;;;;;5073202;28;20209;-80
2023/07/05 10:54:47;;;;;;;2.58;1.70;;;20.40;1.00;;;;;;5073303;28;20633;-79
2023/07/05 10:57:34;;;;;;;3.00;1.80;;;20.40;1.00;;;;;;5072597;28;20279;-78
2023/07/05 11:00:23;;;;;;;2.22;1.75;;;20.40;1.00;;;;;;5071275;28;20174;-77
2023/07/05 11:02:55;;;;;;;2.67;2.28;;;20.50;1.00;;;;;;5072042;28;20168;-79
2023/07/05 11:05:44;;;;;;;2.53;1.67;;;20.40;1.00;;;;;;5071692;28;20715;-77
2023/07/05 11:08:49;;;;;;;2.13;1.65;;;20.40;1.00;;;;;;5072727;28;20223;-79
2023/07/05 11:11:27;;;;;;;2.83;1.50;;;20.40;1.00;;;;;;5070237;28;20663;-79
2023/07/05 11:13:53;;;;;;;1.65;1.40;;;20.70;1.00;;;;;;5071444;28;20237;-80
2023/07/05 11:16:23;;;;;;;2.78;1.50;;;21.10;1.00;;;;;;5071342;28;20731;-82
2023/07/05 11:18:52;;;;;;;2.83;1.48;;;21.10;1.00;;;;;;5072840;28;20181;-78
2023/07/05 11:21:33;;;;;;;2.20;1.60;;;20.90;1.00;;;;;;5073802;28;20180;-79
2023/07/05 11:23:59;;;;;;;2.53;1.75;;;20.70;1.00;;;;;;5065235;28;20173;-79
2023/07/05 11:26:31;;;;;;;5.03;1.42;;;20.80;1.00;;;;;;5059297;28;20190;-79
2023/07/05 11:28:56;;;;;;;3.03;1.63;;;20.60;1.00;;;;;;5058967;28;20652;-77
2023/07/05 11:31:28;;;;;;;2.08;1.27;;;20.40;1.00;;;;;;5058558;28;20190;-80
2023/07/05 11:34:21;;;;;;;2.25;1.20;;;20.40;1.00;;;;;;5060023;28;20193;-77
2023/07/05 11:36:48;;;;;;;0.98;0.90;;;20.40;1.00;;;;;;5058840;28;20185;-81
2023/07/05 11:39:43;;;;;;;1.23;1.13;;;20.30;1.00;;;;;;5058877;28;20278;-80
2023/07/05 11:42:15;;;;;;;1.42;1.05;;;20.40;1.00;;;;;;5052862;28;20359;-79
2023/07/05 11:44:47;;;;;;;1.75;1.10;;;20.30;1.00;;;;;;5060770;28;20184;-78
2023/07/05 11:47:21;;;;;;;2.13;1.20;;;20.40;1.00;;;;;;5059892;28;20209;-79
2023/07/05 11:49:48;;;;;;;1.15;0.95;;;20.40;1.00;;;;;;5058945;28;20192;-77
2023/07/05 11:52:29;;;;;;;3.30;1.00;;;20.40;1.00;;;;;;5058139;28;20569;-80
2023/07/05 11:55:33;;;;;;;2.00;1.30;;;20.10;1.00;;;;;;5051345;28;20179;-75
2023/07/05 11:58:08;;;;;;;3.28;1.33;;;20.00;1.00;;;;;;5051953;28;20683;-78
2023/07/05 12:00:35;;;;;;;3.05;1.20;;;20.20;99.90;;;;;;5059213;28;20633;-76
2023/07/05 12:03:13;;;;;;;2.20;1.13;;;20.20;1.00;;;;;;5057885;28;20810;-76
2023/07/05 12:05:39;;;;;;;1.80;1.10;;;20.20;1.00;;;;;;5059375;28;20208;-78
2023/07/05 12:08:19;;;;;;;2.13;1.13;;;20.30;1.00;;;;;;5059080;28;20661;-80
2023/07/05 12:11:04;;;;;;;1.63;1.23;;;20.50;1.00;;;;;;5060147;28;20946;-79
2023/07/05 12:13:33;;;;;;;1.92;1.20;;;20.50;1.00;;;;;;5058435;28;20263;-77
2023/07/05 12:16:00;;;;;;;1.98;1.20;;;20.50;1.00;;;;;;5059859;28;20201;-80
2023/07/05 12:18:27;;;;;;;2.40;1.20;;;20.60;1.00;;;;;;5058986;28;20169;-77
2023/07/05 12:20:54;;;;;;;1.55;1.00;;;20.60;1.00;;;;;;5057870;28;20617;-81
2023/07/05 12:23:23;;;;;;;1.85;1.20;;;20.70;1.00;;;;;;5058249;28;20181;-80
2023/07/05 12:25:54;;;;;;;2.15;1.15;;;20.70;1.00;;;;;;5059279;28;20204;-77
2023/07/05 12:28:28;;;;;;;2.33;1.23;;;20.70;99.90;;;;;;5055796;28;20657;-76
2023/07/05 12:31:01;;;;;;;1.27;1.00;;;20.80;1.00;;;;;;5059161;28;20268;-78
2023/07/05 12:33:31;;;;;;;1.58;1.25;;;20.80;1.00;;;;;;5055802;28;20194;-79
2023/07/05 12:36:26;;;;;;;1.30;1.20;;;21.00;99.90;;;;;;5056863;28;20190;-79
2023/07/05 12:39:07;;;;;;;2.53;1.10;;;20.80;99.90;;;;;;5056180;28;20273;-78
2023/07/05 12:41:33;;;;;;;1.95;1.10;;;20.70;1.00;;;;;;5056846;28;20652;-79
2023/07/05 12:44:02;;;;;;;1.48;1.00;;;20.80;1.00;;;;;;5057504;28;20178;-78
2023/07/05 12:46:31;;;;;;;2.03;1.20;;;20.70;99.90;;;;;;5058410;28;20197;-78
2023/07/05 12:49:12;;;;;;;2.42;1.40;;;20.90;1.00;;;;;;5058342;28;20268;-80
2023/07/05 12:51:54;;;;;;;1.40;1.10;;;20.90;99.90;;;;;;5052186;28;20178;-79
2023/07/05 12:54:20;;;;;;;1.75;0.98;;;20.80;99.90;;;;;;5056469;28;20569;-78
2023/07/05 12:56:47;;;;;;;2.45;1.08;;;21.00;99.90;;;;;;5059315;28;20195;-80
2023/07/05 12:59:25;;;;;;;2.33;1.15;;;20.90;99.90;;;;;;5055019;28;20182;-79
2023/07/05 13:01:51;;;;;;;2.58;0.70;;;20.80;99.90;;;;;;5057754;28;20182;-78
2023/07/05 13:04:19;;;;;;;2.70;1.00;;;20.80;99.90;;;;;;5059267;28;20165;-78
2023/07/05 13:06:48;;;;;;;1.42;0.98;;;20.70;99.90;;;;;;5054287;28;20230;-78
2023/07/05 13:09:24;;;;;;;1.85;0.93;;;20.80;1.00;;;;;;5055807;28;20235;-78